< < Back
Terminal Aerodrome Forecast


Current Version              Previous Versions:   1  2  3  4  5  6  7  8  9  

Terminal Aerodrome Forecast

967
FTUS42 KGSP 251130
TAFHKY
TAF
KHKY 251130Z 2512/2612 VRB03KT P6SM SKC
     FM251800 18006KT P6SM FEW250
     FM260100 19003KT P6SM BKN080
     FM261100 00000KT P6SM OVC022=

Latest METAR

661
SAUS70 KWBC 251800 RRB
MTRHKY
METAR KHKY 251753Z VRB06KT 10SM CLR 11/M02 A2983 RMK AO2 SLP094
T01061017 10106 21011 58021


USA.gov is the U.S. government's official web portal to all federal, state and local government web resources and services.